createdAt,value
2023-05-24T00:00:47.773Z,10.87
2023-05-24T00:03:16.433Z,11.30
2023-05-24T00:05:46.816Z,10.87
2023-05-24T00:08:16.033Z,10.77
2023-05-24T00:10:43.688Z,11.27
2023-05-24T00:13:11.117Z,11.33
2023-05-24T00:15:38.502Z,11.53
2023-05-24T00:18:05.847Z,11.80
2023-05-24T00:20:33.104Z,12.07
2023-05-24T00:23:00.475Z,10.73
2023-05-24T00:25:27.808Z,11.00
2023-05-24T00:27:54.999Z,11.17
2023-05-24T00:30:22.255Z,11.53
2023-05-24T00:32:49.581Z,11.03
2023-05-24T00:35:16.852Z,11.00
2023-05-24T00:37:45.368Z,11.00
2023-05-24T00:40:13.468Z,11.47
2023-05-24T00:42:41.459Z,10.77
2023-05-24T00:45:08.891Z,11.80
2023-05-24T00:47:36.254Z,13.37
2023-05-24T00:50:04.517Z,13.47
2023-05-24T00:52:31.815Z,11.63
2023-05-24T00:54:59.135Z,13.50
2023-05-24T00:57:27.394Z,16.10
2023-05-24T00:59:54.604Z,14.03
2023-05-24T01:02:21.880Z,16.83
2023-05-24T01:04:49.151Z,11.47
2023-05-24T01:07:26.831Z,11.63
2023-05-24T01:10:12.860Z,11.00
2023-05-24T01:12:49.354Z,11.97
2023-05-24T01:15:29.396Z,11.37
2023-05-24T01:18:06.348Z,10.90
2023-05-24T01:20:34.674Z,11.27
2023-05-24T01:23:02.036Z,11.80
2023-05-24T01:25:48.078Z,11.10
2023-05-24T01:28:16.386Z,12.00
2023-05-24T01:30:43.800Z,12.73
2023-05-24T01:33:11.505Z,11.17
2023-05-24T01:35:41.336Z,9.57
2023-05-24T01:38:09.047Z,9.97
2023-05-24T01:40:37.607Z,10.87
2023-05-24T01:43:23.942Z,9.40
2023-05-24T01:45:57.148Z,8.93
2023-05-24T01:48:33.317Z,9.10
2023-05-24T01:51:01.202Z,10.93
2023-05-24T01:53:33.810Z,8.83
2023-05-24T01:56:02.499Z,9.33
2023-05-24T01:58:31.251Z,9.07
2023-05-24T02:00:59.008Z,9.53
2023-05-24T02:03:26.241Z,8.10
2023-05-24T02:05:53.398Z,7.97
2023-05-24T02:08:21.157Z,8.60
2023-05-24T02:10:48.455Z,9.50
2023-05-24T02:13:18.132Z,8.67
2023-05-24T02:15:45.425Z,8.37
2023-05-24T02:18:13.217Z,8.97
2023-05-24T02:20:41.182Z,9.03
2023-05-24T02:23:08.640Z,9.00
2023-05-24T02:25:35.906Z,10.77
2023-05-24T02:28:03.293Z,8.97
2023-05-24T02:30:30.460Z,9.37
2023-05-24T02:32:58.298Z,9.30
2023-05-24T02:35:25.912Z,9.63
2023-05-24T02:37:53.141Z,9.60
2023-05-24T02:40:20.290Z,8.90
2023-05-24T02:42:47.441Z,13.87
2023-05-24T02:45:14.620Z,9.47
2023-05-24T02:47:41.880Z,10.23
2023-05-24T02:50:09.334Z,9.30
2023-05-24T02:52:36.525Z,10.17
2023-05-24T02:55:04.262Z,10.43
2023-05-24T02:57:34.087Z,12.03
2023-05-24T03:00:01.242Z,10.87
2023-05-24T03:02:34.092Z,9.80
2023-05-24T03:05:01.404Z,10.03
2023-05-24T03:07:28.551Z,10.90
2023-05-24T03:09:55.674Z,11.00
2023-05-24T03:12:22.837Z,10.40
2023-05-24T03:14:50.039Z,12.20
2023-05-24T03:17:17.262Z,11.33
2023-05-24T03:19:44.502Z,12.40
2023-05-24T03:22:11.663Z,9.90
2023-05-24T03:24:38.972Z,12.40
2023-05-24T03:27:07.071Z,12.20
2023-05-24T03:29:34.259Z,11.33
2023-05-24T03:32:01.614Z,12.07
2023-05-24T03:34:28.916Z,11.07
2023-05-24T03:36:56.079Z,12.33
2023-05-24T03:39:23.380Z,11.17
2023-05-24T03:41:50.552Z,11.00
2023-05-24T03:44:17.768Z,11.60
2023-05-24T03:46:44.930Z,10.87
2023-05-24T03:49:12.182Z,13.33
2023-05-24T03:51:39.353Z,12.37
2023-05-24T03:54:06.602Z,10.87
2023-05-24T03:56:33.741Z,11.53
2023-05-24T03:59:03.924Z,11.00
2023-05-24T04:01:35.176Z,12.67
2023-05-24T04:04:02.827Z,14.13
2023-05-24T04:06:30.329Z,12.70
2023-05-24T04:08:58.225Z,10.27
2023-05-24T04:11:28.960Z,10.63
2023-05-24T04:13:56.514Z,11.73
2023-05-24T04:16:26.593Z,9.70
2023-05-24T04:18:57.254Z,11.47
2023-05-24T04:21:24.661Z,9.33
2023-05-24T04:23:51.828Z,9.80
2023-05-24T04:26:19.261Z,11.00
2023-05-24T04:28:46.774Z,8.10
2023-05-24T04:31:15.651Z,11.97
2023-05-24T04:33:42.975Z,9.00
2023-05-24T04:36:12.059Z,9.27
2023-05-24T04:38:40.969Z,11.37
2023-05-24T04:41:08.371Z,8.63
2023-05-24T04:43:35.578Z,10.20
2023-05-24T04:46:02.858Z,9.10
2023-05-24T04:48:30.035Z,8.03
2023-05-24T04:51:00.991Z,10.27
2023-05-24T04:53:28.187Z,10.63
2023-05-24T04:55:55.965Z,9.03
2023-05-24T04:58:23.131Z,11.13
2023-05-24T05:00:50.303Z,8.80
2023-05-24T05:03:17.745Z,14.60
2023-05-24T05:05:46.536Z,12.67
2023-05-24T05:08:14.069Z,9.70
2023-05-24T05:10:41.540Z,9.50
2023-05-24T05:13:08.822Z,14.93
2023-05-24T05:15:35.942Z,11.83
2023-05-24T05:18:03.141Z,12.27
2023-05-24T05:20:30.413Z,9.00
2023-05-24T05:22:57.698Z,9.97
2023-05-24T05:25:24.891Z,11.40
2023-05-24T05:27:52.055Z,9.63
2023-05-24T05:30:19.326Z,10.47
2023-05-24T05:32:46.734Z,10.93
2023-05-24T05:35:14.062Z,8.47
2023-05-24T05:37:41.190Z,11.60
2023-05-24T05:40:08.684Z,14.57
2023-05-24T05:42:35.866Z,8.70
2023-05-24T05:45:03.476Z,11.03
2023-05-24T05:47:30.641Z,9.67
2023-05-24T05:49:57.840Z,9.33
2023-05-24T05:52:25.016Z,12.10
2023-05-24T05:54:52.257Z,8.67
2023-05-24T05:57:24.063Z,12.90
2023-05-24T05:59:51.462Z,9.83
2023-05-24T06:02:24.674Z,10.80
2023-05-24T06:04:52.077Z,8.90
2023-05-24T06:07:19.218Z,8.90
2023-05-24T06:09:46.394Z,10.67
2023-05-24T06:12:13.548Z,12.07
2023-05-24T06:14:40.743Z,14.53
2023-05-24T06:17:08.032Z,10.67
2023-05-24T06:19:35.546Z,10.87
2023-05-24T06:22:02.770Z,9.87
2023-05-24T06:24:29.954Z,14.63
2023-05-24T06:26:57.952Z,9.57
2023-05-24T06:29:25.323Z,11.80
2023-05-24T06:31:52.777Z,10.03
2023-05-24T06:34:23.626Z,10.33
2023-05-24T06:36:52.848Z,8.73
2023-05-24T06:39:20.181Z,11.33
2023-05-24T06:41:47.589Z,9.23
2023-05-24T06:44:16.329Z,9.50
2023-05-24T06:46:43.592Z,11.33
2023-05-24T06:49:10.924Z,9.03
2023-05-24T06:51:38.298Z,10.07
2023-05-24T06:54:05.719Z,9.00
2023-05-24T06:56:33.164Z,10.63
2023-05-24T06:59:00.625Z,7.57
2023-05-24T07:01:28.245Z,12.37
2023-05-24T07:03:55.639Z,8.50
2023-05-24T07:06:22.847Z,9.73
2023-05-24T07:08:50.019Z,9.20
2023-05-24T07:11:18.402Z,9.83
2023-05-24T07:13:45.678Z,9.77
2023-05-24T07:16:12.864Z,11.10
2023-05-24T07:18:41.633Z,10.97
2023-05-24T07:21:09.061Z,7.37
2023-05-24T07:23:37.221Z,12.37
2023-05-24T07:26:04.874Z,10.77
2023-05-24T07:28:34.442Z,11.93
2023-05-24T07:31:01.674Z,13.20
2023-05-24T07:33:28.933Z,13.20
2023-05-24T07:35:56.130Z,9.97
2023-05-24T07:38:23.305Z,10.07
2023-05-24T07:40:51.031Z,11.00
2023-05-24T07:43:18.218Z,10.17
2023-05-24T07:45:45.532Z,11.33
2023-05-24T07:48:12.786Z,12.50
2023-05-24T07:50:40.211Z,10.80
2023-05-24T07:53:07.525Z,11.47
2023-05-24T07:55:34.658Z,10.67
2023-05-24T07:58:01.907Z,8.13
2023-05-24T08:00:29.944Z,9.43
2023-05-24T08:02:57.411Z,10.97
2023-05-24T08:05:24.934Z,13.57
2023-05-24T08:07:53.435Z,9.83
2023-05-24T08:10:20.717Z,14.17
2023-05-24T08:12:50.074Z,12.73
2023-05-24T08:15:17.302Z,10.18
2023-05-24T08:17:44.591Z,11.97
2023-05-24T08:20:16.915Z,10.93
2023-05-24T08:22:44.516Z,10.13
2023-05-24T08:25:11.929Z,12.67
2023-05-24T08:27:39.269Z,11.53
2023-05-24T08:30:07.290Z,9.73
2023-05-24T08:32:34.717Z,9.57
2023-05-24T08:35:18.409Z,9.93
2023-05-24T08:37:48.050Z,10.07
2023-05-24T08:40:15.501Z,11.47
2023-05-24T08:42:42.947Z,11.37
2023-05-24T08:45:12.442Z,10.37
2023-05-24T08:47:40.381Z,9.27
2023-05-24T08:50:08.717Z,10.17
2023-05-24T08:52:36.640Z,10.70
2023-05-24T08:55:07.482Z,12.00
2023-05-24T08:57:39.553Z,13.33
2023-05-24T09:00:09.453Z,13.63
2023-05-24T09:02:38.594Z,12.80
2023-05-24T09:05:06.564Z,12.73
2023-05-24T09:07:33.747Z,10.43
2023-05-24T09:10:08.253Z,11.63
2023-05-24T09:12:38.588Z,21.70
2023-05-24T09:15:07.297Z,12.63
2023-05-24T09:17:38.291Z,15.30
2023-05-24T09:20:11.386Z,11.03
2023-05-24T09:22:41.197Z,11.97
2023-05-24T09:25:10.258Z,11.73
2023-05-24T09:27:38.490Z,14.23
2023-05-24T09:30:09.224Z,13.60
2023-05-24T09:32:36.505Z,11.23
2023-05-24T09:35:03.932Z,13.33
2023-05-24T09:37:33.015Z,9.33
2023-05-24T09:40:00.695Z,11.63
2023-05-24T09:42:28.905Z,13.13
2023-05-24T09:45:02.138Z,15.77
2023-05-24T09:47:30.552Z,13.73
2023-05-24T09:49:58.056Z,17.77
2023-05-24T09:52:25.301Z,8.87
2023-05-24T09:54:52.994Z,11.57
2023-05-24T09:57:22.817Z,12.03
2023-05-24T09:59:52.795Z,16.87
2023-05-24T10:02:23.881Z,9.73
2023-05-24T10:04:58.411Z,11.20
2023-05-24T10:07:26.211Z,14.43
2023-05-24T10:09:53.647Z,11.03
2023-05-24T10:12:23.314Z,12.83
2023-05-24T10:14:51.881Z,17.13
2023-05-24T10:17:19.087Z,13.77
2023-05-24T10:19:46.295Z,8.90
2023-05-24T10:22:14.963Z,12.63
2023-05-24T10:24:45.826Z,12.53
2023-05-24T10:27:21.272Z,14.07
2023-05-24T10:29:59.468Z,12.23
2023-05-24T10:32:31.494Z,11.40
2023-05-24T10:35:00.675Z,13.90
2023-05-24T10:37:27.930Z,11.40
2023-05-24T10:39:55.098Z,10.70
2023-05-24T10:42:22.386Z,12.03
2023-05-24T10:44:49.533Z,11.07
2023-05-24T10:47:19.839Z,12.33
2023-05-24T10:49:54.209Z,11.13
2023-05-24T10:52:21.674Z,11.27
2023-05-24T10:55:10.663Z,9.87
2023-05-24T10:57:38.585Z,10.77
2023-05-24T11:00:33.971Z,11.73
2023-05-24T11:03:09.381Z,12.47
2023-05-24T11:05:36.957Z,12.10
2023-05-24T11:08:10.395Z,8.87
2023-05-24T11:10:38.433Z,13.13
2023-05-24T11:13:08.534Z,11.77
2023-05-24T11:15:36.092Z,12.07
2023-05-24T11:18:09.511Z,9.25
2023-05-24T11:20:36.851Z,7.97
2023-05-24T11:23:07.133Z,11.15
2023-05-24T11:25:36.944Z,12.80
2023-05-24T11:28:07.202Z,11.47
2023-05-24T11:30:34.418Z,9.53
2023-05-24T11:33:02.261Z,13.80
2023-05-24T11:35:29.805Z,13.93
2023-05-24T11:38:00.195Z,10.33
2023-05-24T11:40:27.393Z,11.73
2023-05-24T11:42:54.561Z,9.57
2023-05-24T11:45:22.031Z,9.67
2023-05-24T11:47:50.308Z,9.93
2023-05-24T11:50:25.316Z,9.73
2023-05-24T11:52:53.928Z,18.50
2023-05-24T11:55:27.431Z,12.03
2023-05-24T11:57:58.453Z,11.03
2023-05-24T12:00:29.162Z,11.07
2023-05-24T12:03:05.159Z,11.63
2023-05-24T12:05:32.504Z,12.80
2023-05-24T12:08:06.323Z,11.57
2023-05-24T12:10:34.373Z,13.90
2023-05-24T12:13:02.099Z,9.43
2023-05-24T12:15:29.277Z,11.57
2023-05-24T12:17:56.943Z,15.53
2023-05-24T12:20:24.590Z,10.93
2023-05-24T12:22:52.696Z,9.43
2023-05-24T12:25:21.377Z,13.80
2023-05-24T12:27:57.760Z,14.77
2023-05-24T12:30:25.550Z,9.33
2023-05-24T12:32:56.272Z,14.53
2023-05-24T12:35:23.697Z,18.43
2023-05-24T12:37:51.095Z,14.13
2023-05-24T12:40:20.814Z,16.20
2023-05-24T12:42:56.048Z,12.67
2023-05-24T12:45:27.661Z,11.60
2023-05-24T12:47:59.869Z,13.50
2023-05-24T12:50:27.508Z,9.00
2023-05-24T12:52:54.678Z,16.10
2023-05-24T12:55:26.340Z,12.27
2023-05-24T12:57:54.470Z,16.23
2023-05-24T13:00:22.609Z,11.47
2023-05-24T13:02:50.062Z,9.93
2023-05-24T13:05:19.669Z,9.43
2023-05-24T13:07:46.829Z,15.20
2023-05-24T13:10:14.117Z,11.67
2023-05-24T13:12:41.841Z,13.87
2023-05-24T13:15:09.309Z,9.60
2023-05-24T13:17:36.520Z,6.83
2023-05-24T13:20:06.684Z,14.03
2023-05-24T13:22:37.746Z,11.73
2023-05-24T13:25:05.654Z,9.73
2023-05-24T13:27:32.792Z,8.10
2023-05-24T13:30:01.579Z,13.73
2023-05-24T13:32:29.093Z,10.57
2023-05-24T13:34:56.315Z,12.60
2023-05-24T13:37:24.851Z,13.00
2023-05-24T13:39:52.268Z,15.50
2023-05-24T13:42:19.501Z,9.70
2023-05-24T13:44:46.687Z,8.27
2023-05-24T13:47:23.817Z,13.90
2023-05-24T13:49:59.482Z,9.33
2023-05-24T13:52:26.675Z,10.27
2023-05-24T13:54:53.867Z,16.17
2023-05-24T13:57:22.731Z,11.30
2023-05-24T13:59:52.212Z,10.00
2023-05-24T14:02:19.480Z,9.60
2023-05-24T14:04:46.737Z,10.57
2023-05-24T14:07:15.783Z,9.90
2023-05-24T14:09:43.239Z,14.80
2023-05-24T14:12:10.643Z,7.97
2023-05-24T14:17:08.371Z,9.15
2023-05-24T14:19:35.649Z,12.20
2023-05-24T14:22:03.011Z,9.38
2023-05-24T14:24:30.221Z,11.32
2023-05-24T14:26:57.462Z,11.48
2023-05-24T14:29:24.665Z,11.73
2023-05-24T14:31:52.080Z,7.18
2023-05-24T14:34:19.588Z,8.55
2023-05-24T14:36:48.089Z,8.52
2023-05-24T14:39:15.542Z,8.57
2023-05-24T14:41:42.774Z,8.13
2023-05-24T14:44:10.036Z,8.50
2023-05-24T14:46:37.404Z,10.73
2023-05-24T14:49:05.173Z,8.75
2023-05-24T14:51:32.666Z,8.43
2023-05-24T14:53:59.913Z,9.85
2023-05-24T14:56:27.447Z,8.77
2023-05-24T14:58:55.313Z,7.63
2023-05-24T15:01:23.193Z,6.38
2023-05-24T15:03:50.655Z,6.97
2023-05-24T15:06:18.349Z,6.80
2023-05-24T15:08:45.664Z,6.57
2023-05-24T15:11:13.073Z,9.90
2023-05-24T15:13:41.081Z,8.95
2023-05-24T15:16:08.681Z,6.53
2023-05-24T15:18:35.974Z,7.22
2023-05-24T15:21:03.222Z,6.85
2023-05-24T15:23:30.541Z,8.05
2023-05-24T15:25:57.835Z,9.13
2023-05-24T15:28:26.654Z,7.68
2023-05-24T15:30:54.525Z,7.22
2023-05-24T15:33:22.170Z,6.72
2023-05-24T15:35:49.674Z,8.25
2023-05-24T15:38:18.582Z,6.70
2023-05-24T15:40:46.296Z,10.68
2023-05-24T15:43:15.583Z,7.97
2023-05-24T15:45:43.905Z,8.35
2023-05-24T15:48:11.343Z,9.65
2023-05-24T15:51:00.001Z,5.93
2023-05-24T15:53:26.068Z,10.05
2023-05-24T15:55:55.583Z,7.88
2023-05-24T15:58:22.832Z,6.88
2023-05-24T16:00:51.209Z,8.55
2023-05-24T16:03:19.861Z,6.80
2023-05-24T16:05:49.551Z,7.32
2023-05-24T16:08:18.997Z,7.18
2023-05-24T16:10:49.116Z,10.70
2023-05-24T16:13:16.385Z,5.18
2023-05-24T16:15:47.573Z,6.75
2023-05-24T16:18:18.175Z,8.85
2023-05-24T16:20:46.539Z,6.93
2023-05-24T16:23:14.087Z,7.60
2023-05-24T16:25:41.376Z,5.68
2023-05-24T16:28:08.605Z,6.63
2023-05-24T16:30:36.834Z,5.13
2023-05-24T16:33:04.299Z,5.78
2023-05-24T16:35:31.732Z,8.23
2023-05-24T16:37:59.001Z,8.38
2023-05-24T16:40:26.805Z,8.40
2023-05-24T16:42:54.456Z,7.88
2023-05-24T16:45:21.766Z,7.95
2023-05-24T16:47:49.052Z,8.25
2023-05-24T16:50:16.349Z,9.45
2023-05-24T16:52:43.926Z,9.98
2023-05-24T16:55:16.004Z,7.00
2023-05-24T16:57:43.281Z,7.68
2023-05-24T17:00:10.791Z,6.28
2023-05-24T17:02:38.358Z,6.85
2023-05-24T17:05:05.863Z,9.10
2023-05-24T17:07:33.082Z,9.48
2023-05-24T17:10:00.657Z,10.45
2023-05-24T17:12:29.633Z,6.68
2023-05-24T17:14:56.980Z,5.07
2023-05-24T17:17:24.217Z,7.75
2023-05-24T17:19:51.519Z,8.75
2023-05-24T17:22:19.027Z,7.80
2023-05-24T17:24:46.787Z,7.63
2023-05-24T17:27:14.072Z,8.38
2023-05-24T17:29:41.482Z,5.13
2023-05-24T17:32:09.100Z,7.13
2023-05-24T17:34:36.437Z,8.73
2023-05-24T17:37:03.781Z,8.93
2023-05-24T17:39:31.674Z,6.93
2023-05-24T17:41:58.970Z,8.05
2023-05-24T17:44:26.274Z,6.95
2023-05-24T17:46:53.636Z,5.07
2023-05-24T17:49:20.988Z,6.38
2023-05-24T17:51:48.210Z,7.25
2023-05-24T17:54:15.464Z,5.80
2023-05-24T17:56:42.721Z,4.78
2023-05-24T17:59:10.087Z,6.90
2023-05-24T18:01:37.436Z,7.28
2023-05-24T18:04:06.887Z,7.63
2023-05-24T18:06:35.545Z,7.07
2023-05-24T18:09:02.763Z,6.20
2023-05-24T18:11:30.006Z,7.25
2023-05-24T18:13:57.663Z,6.75
2023-05-24T18:16:24.983Z,5.00
2023-05-24T18:18:52.206Z,6.05
2023-05-24T18:21:19.435Z,4.97
2023-05-24T18:23:46.685Z,8.43
2023-05-24T18:26:13.994Z,5.53
2023-05-24T18:28:42.281Z,6.05
2023-05-24T18:31:16.112Z,7.45
2023-05-24T18:33:44.630Z,4.55
2023-05-24T18:36:12.762Z,5.78
2023-05-24T18:38:40.559Z,6.20
2023-05-24T18:41:10.078Z,4.78
2023-05-24T18:43:37.535Z,6.63
2023-05-24T18:46:04.972Z,6.65
2023-05-24T18:48:32.226Z,7.75
2023-05-24T18:50:59.508Z,4.53
2023-05-24T18:53:26.810Z,6.65
2023-05-24T18:55:54.061Z,5.15
2023-05-24T18:58:21.324Z,7.83
2023-05-24T19:00:48.589Z,7.38
2023-05-24T19:03:15.961Z,7.55
2023-05-24T19:05:44.289Z,6.60
2023-05-24T19:08:11.638Z,9.53
2023-05-24T19:10:38.940Z,7.60
2023-05-24T19:13:07.007Z,5.63
2023-05-24T19:15:39.090Z,8.37
2023-05-24T19:18:07.620Z,4.43
2023-05-24T19:20:35.003Z,4.50
2023-05-24T19:23:02.322Z,4.83
2023-05-24T19:25:31.213Z,7.00
2023-05-24T19:28:00.501Z,6.93
2023-05-24T19:30:28.334Z,5.87
2023-05-24T19:32:55.708Z,5.17
2023-05-24T19:35:23.309Z,6.20
2023-05-24T19:37:50.757Z,5.33
2023-05-24T19:40:19.106Z,4.80
2023-05-24T19:42:46.411Z,4.47
2023-05-24T19:45:13.686Z,6.27
2023-05-24T19:47:41.345Z,5.37
2023-05-24T19:50:08.938Z,6.77
2023-05-24T19:52:36.153Z,5.77
2023-05-24T19:55:03.469Z,4.33
2023-05-24T19:57:30.705Z,6.57
2023-05-24T19:59:58.028Z,4.30
2023-05-24T20:02:25.307Z,7.43
2023-05-24T20:04:52.811Z,4.00
2023-05-24T20:07:20.036Z,5.73
2023-05-24T20:09:47.302Z,6.53
2023-05-24T20:12:14.639Z,8.07
2023-05-24T20:14:41.896Z,7.60
2023-05-24T20:17:09.175Z,6.83
2023-05-24T20:19:36.941Z,5.20
2023-05-24T20:22:04.194Z,8.10
2023-05-24T20:24:31.489Z,6.30
2023-05-24T20:26:58.766Z,6.67
2023-05-24T20:29:26.084Z,5.97
2023-05-24T20:31:53.432Z,6.57
2023-05-24T20:34:21.139Z,6.07
2023-05-24T20:36:48.402Z,5.27
2023-05-24T20:39:15.615Z,6.23
2023-05-24T20:41:42.902Z,6.27
2023-05-24T20:44:10.127Z,4.60
2023-05-24T20:46:37.544Z,6.53
2023-05-24T20:49:04.799Z,9.33
2023-05-24T20:51:32.040Z,6.17
2023-05-24T20:53:59.284Z,9.53
2023-05-24T20:56:26.637Z,8.50
2023-05-24T20:58:54.386Z,4.57
2023-05-24T21:01:21.948Z,8.33
2023-05-24T21:03:49.237Z,6.67
2023-05-24T21:06:16.562Z,8.03
2023-05-24T21:08:43.858Z,8.20
2023-05-24T21:11:11.172Z,6.63
2023-05-24T21:13:38.415Z,4.80
2023-05-24T21:16:05.777Z,10.27
2023-05-24T21:18:33.499Z,6.73
2023-05-24T21:21:00.930Z,8.23
2023-05-24T21:23:28.188Z,6.70
2023-05-24T21:25:55.538Z,7.80
2023-05-24T21:28:22.753Z,8.70
2023-05-24T21:30:50.054Z,7.07
2023-05-24T21:33:17.333Z,5.57
2023-05-24T21:35:44.849Z,6.87
2023-05-24T21:38:12.213Z,6.87
2023-05-24T21:40:39.435Z,4.70
2023-05-24T21:43:09.654Z,6.03
2023-05-24T21:45:36.879Z,6.37
2023-05-24T21:48:04.175Z,9.47
2023-05-24T21:50:31.437Z,6.23
2023-05-24T21:52:58.649Z,6.77
2023-05-24T21:55:26.025Z,7.03
2023-05-24T21:57:53.240Z,8.17
2023-05-24T22:00:20.741Z,8.27
2023-05-24T22:23:03.931Z,5.67
2023-05-24T22:25:31.180Z,10.03
2023-05-24T22:27:58.420Z,7.50
2023-05-24T22:30:26.360Z,3.90
2023-05-24T22:32:53.666Z,7.27
2023-05-24T22:35:20.961Z,7.57
2023-05-24T22:37:48.295Z,7.63
2023-05-24T22:40:15.690Z,6.47
2023-05-24T22:56:27.101Z,7.10
2023-05-24T22:58:54.456Z,10.17
2023-05-24T23:01:21.729Z,8.10
2023-05-24T23:03:48.960Z,6.30
2023-05-24T23:06:17.540Z,8.67
2023-05-24T23:08:44.767Z,5.80
2023-05-24T23:11:12.001Z,7.93
2023-05-24T23:13:42.471Z,6.70
2023-05-24T23:16:09.930Z,6.70
2023-05-24T23:18:37.848Z,7.40
2023-05-24T23:21:05.346Z,11.03
2023-05-24T23:23:32.609Z,7.33
2023-05-24T23:25:59.850Z,8.80
2023-05-24T23:28:27.248Z,8.10
2023-05-24T23:30:54.607Z,6.67
2023-05-24T23:33:21.834Z,7.90
2023-05-24T23:35:49.053Z,11.27
2023-05-24T23:38:16.840Z,5.97
2023-05-24T23:40:44.317Z,5.10
2023-05-24T23:43:11.595Z,7.47
2023-05-24T23:45:39.015Z,8.53
2023-05-24T23:48:06.791Z,5.33
2023-05-24T23:50:42.873Z,8.50
2023-05-24T23:53:17.659Z,9.93
2023-05-24T23:55:45.188Z,9.70
2023-05-24T23:58:12.726Z,8.40
